createdAt,value
2022-08-03T00:00:31.142Z,8.00
2022-08-03T00:03:04.162Z,9.50
2022-08-03T00:05:35.248Z,8.30
2022-08-03T00:08:03.285Z,9.50
2022-08-03T00:10:32.827Z,8.50
2022-08-03T00:13:00.469Z,8.20
2022-08-03T00:15:28.103Z,12.00
2022-08-03T00:17:55.713Z,8.80
2022-08-03T00:20:23.832Z,9.80
2022-08-03T00:22:51.740Z,7.40
2022-08-03T00:25:19.769Z,7.80
2022-08-03T00:27:48.364Z,8.40
2022-08-03T00:30:18.104Z,8.00
2022-08-03T00:32:45.705Z,8.60
2022-08-03T00:35:26.614Z,10.30
2022-08-03T00:38:01.444Z,9.50
2022-08-03T00:40:29.295Z,8.90
2022-08-03T00:42:57.858Z,7.40
2022-08-03T00:45:29.024Z,7.70
2022-08-03T00:47:57.521Z,7.30
2022-08-03T00:50:27.143Z,8.50
2022-08-03T00:52:57.080Z,12.10
2022-08-03T00:55:25.594Z,10.00
2022-08-03T00:57:54.146Z,7.90
2022-08-03T01:00:24.758Z,10.80
2022-08-03T01:02:53.589Z,8.90
2022-08-03T01:05:22.025Z,8.50
2022-08-03T01:08:11.918Z,10.90
2022-08-03T01:10:49.292Z,8.20
2022-08-03T01:14:01.620Z,8.10
2022-08-03T01:16:36.541Z,9.20
2022-08-03T01:19:13.155Z,8.80
2022-08-03T01:22:05.833Z,8.40
2022-08-03T01:25:05.356Z,9.50
2022-08-03T01:28:01.187Z,9.00
2022-08-03T01:30:32.542Z,9.90
2022-08-03T01:33:12.765Z,8.50
2022-08-03T01:35:47.671Z,8.30
2022-08-03T01:38:22.185Z,9.50
2022-08-03T01:40:53.924Z,8.50
2022-08-03T01:44:27.004Z,7.40
2022-08-03T01:46:17.734Z,8.90
2022-08-03T01:48:47.431Z,9.20
2022-08-03T01:51:18.414Z,8.20
2022-08-03T01:53:48.232Z,7.70
2022-08-03T01:56:17.883Z,9.40
2022-08-03T01:58:48.556Z,8.20
2022-08-03T02:01:17.684Z,7.10
2022-08-03T02:04:00.102Z,8.40
2022-08-03T02:07:01.572Z,8.40
2022-08-03T02:09:22.017Z,8.40
2022-08-03T02:11:52.209Z,8.80
2022-08-03T02:14:21.278Z,9.50
2022-08-03T02:16:50.411Z,9.00
2022-08-03T02:19:19.485Z,8.60
2022-08-03T02:21:56.409Z,9.10
2022-08-03T02:24:30.693Z,7.70
2022-08-03T02:26:59.889Z,9.40
2022-08-03T02:29:39.652Z,9.30
2022-08-03T02:32:14.238Z,7.40
2022-08-03T02:34:46.039Z,8.10
2022-08-03T02:37:18.078Z,9.70
2022-08-03T02:39:47.961Z,7.50
2022-08-03T02:42:18.950Z,9.00
2022-08-03T02:44:51.062Z,10.50
2022-08-03T02:47:21.386Z,9.20
2022-08-03T02:49:52.301Z,9.60
2022-08-03T02:52:23.088Z,11.00
2022-08-03T02:54:54.895Z,12.60
2022-08-03T02:57:23.708Z,8.60
2022-08-03T02:59:53.375Z,8.00
2022-08-03T03:02:22.936Z,8.20
2022-08-03T03:05:50.625Z,6.60
2022-08-03T03:07:52.165Z,10.00
2022-08-03T03:10:22.883Z,8.80
2022-08-03T03:12:55.146Z,8.90
2022-08-03T03:15:25.787Z,8.20
2022-08-03T03:17:54.573Z,9.60
2022-08-03T03:20:29.420Z,7.80
2022-08-03T03:23:02.057Z,8.80
2022-08-03T03:25:32.184Z,8.30
2022-08-03T03:28:01.355Z,9.10
2022-08-03T03:30:30.299Z,8.50
2022-08-03T03:32:59.359Z,9.20
2022-08-03T03:35:27.838Z,7.60
2022-08-03T03:37:56.615Z,7.90
2022-08-03T03:40:24.900Z,8.80
2022-08-03T03:42:52.675Z,9.90
2022-08-03T03:45:22.283Z,6.80
2022-08-03T03:47:50.186Z,7.80
2022-08-03T03:50:18.829Z,8.60
2022-08-03T03:52:46.575Z,12.90
2022-08-03T03:55:18.320Z,8.50
2022-08-03T03:57:46.730Z,7.80
2022-08-03T04:00:16.486Z,7.70
2022-08-03T04:02:45.321Z,10.60
2022-08-03T04:05:29.568Z,8.10
2022-08-03T04:08:22.454Z,7.30
2022-08-03T04:11:16.862Z,9.70
2022-08-03T04:13:51.733Z,8.60
2022-08-03T04:16:22.632Z,8.70
2022-08-03T04:18:57.542Z,10.30
2022-08-03T04:21:26.386Z,10.20
2022-08-03T04:23:59.256Z,9.90
2022-08-03T04:26:31.897Z,8.50
2022-08-03T04:29:00.915Z,9.70
2022-08-03T04:31:30.292Z,8.50
2022-08-03T04:33:59.365Z,9.30
2022-08-03T04:36:31.751Z,10.10
2022-08-03T04:39:08.170Z,8.60
2022-08-03T04:42:04.447Z,8.40
2022-08-03T04:44:28.382Z,10.20
2022-08-03T04:46:57.858Z,8.20
2022-08-03T04:49:27.117Z,9.10
2022-08-03T04:51:54.914Z,9.50
2022-08-03T04:54:22.514Z,11.20
2022-08-03T04:56:50.121Z,18.50
2022-08-03T04:59:17.981Z,9.40
2022-08-03T05:01:45.837Z,8.80
2022-08-03T05:04:14.461Z,10.50
2022-08-03T05:06:48.354Z,10.10
2022-08-03T05:09:52.888Z,12.40
2022-08-03T05:12:11.146Z,8.60
2022-08-03T05:14:39.181Z,9.00
2022-08-03T05:17:08.021Z,13.80
2022-08-03T05:19:35.758Z,10.00
2022-08-03T05:22:03.482Z,8.30
2022-08-03T05:24:31.145Z,11.70
2022-08-03T05:26:58.849Z,8.90
2022-08-03T05:29:26.420Z,47.40
2022-08-03T05:31:54.005Z,10.00
2022-08-03T05:34:21.623Z,9.30
2022-08-03T05:36:49.204Z,10.10
2022-08-03T05:39:16.879Z,9.70
2022-08-03T05:41:44.554Z,13.10
2022-08-03T05:44:12.126Z,7.60
2022-08-03T05:46:39.955Z,10.40
2022-08-03T05:49:07.629Z,7.40
2022-08-03T05:51:35.417Z,9.00
2022-08-03T05:54:03.359Z,8.60
2022-08-03T05:56:31.085Z,9.20
2022-08-03T05:59:04.223Z,8.90
2022-08-03T06:01:44.122Z,9.10
2022-08-03T06:04:11.940Z,11.70
2022-08-03T06:06:39.536Z,12.20
2022-08-03T06:09:07.136Z,7.70
2022-08-03T06:11:35.317Z,9.50
2022-08-03T06:14:03.617Z,10.00
2022-08-03T06:16:31.483Z,7.50
2022-08-03T06:18:59.148Z,9.40
2022-08-03T06:21:27.186Z,10.30
2022-08-03T06:23:55.715Z,8.30
2022-08-03T06:26:27.842Z,8.60
2022-08-03T06:28:56.061Z,8.40
2022-08-03T06:31:32.849Z,7.70
2022-08-03T06:34:33.937Z,9.60
2022-08-03T06:36:58.503Z,7.60
2022-08-03T06:39:30.132Z,9.50
2022-08-03T06:41:58.108Z,7.40
2022-08-03T06:44:26.151Z,16.40
2022-08-03T06:46:53.789Z,12.00
2022-08-03T06:49:21.499Z,9.30
2022-08-03T06:52:04.118Z,9.30
2022-08-03T06:54:34.654Z,6.60
2022-08-03T06:57:02.492Z,8.20
2022-08-03T07:00:08.951Z,8.00
2022-08-03T07:02:19.832Z,10.00
2022-08-03T07:04:48.952Z,7.20
2022-08-03T07:07:17.712Z,4.50
2022-08-03T07:09:56.483Z,8.10
2022-08-03T07:12:29.933Z,7.10
2022-08-03T07:15:02.338Z,6.50
2022-08-03T07:17:32.951Z,7.70
2022-08-03T07:20:03.060Z,9.20
2022-08-03T07:22:30.691Z,12.20
2022-08-03T07:24:59.190Z,8.00
2022-08-03T07:27:28.405Z,6.20
2022-08-03T07:29:57.955Z,6.80
2022-08-03T07:32:27.013Z,8.60
2022-08-03T07:34:58.499Z,6.40
2022-08-03T07:37:29.196Z,8.20
2022-08-03T07:39:57.374Z,10.80
2022-08-03T07:42:26.100Z,11.90
2022-08-03T07:44:54.013Z,9.00
2022-08-03T07:47:24.453Z,6.90
2022-08-03T07:49:52.842Z,5.00
2022-08-03T07:52:36.154Z,5.10
2022-08-03T07:55:06.403Z,4.40
2022-08-03T07:57:35.150Z,6.80
2022-08-03T08:00:07.369Z,8.50
2022-08-03T08:02:41.567Z,4.00
2022-08-03T08:05:10.860Z,3.60
2022-08-03T08:07:39.377Z,4.50
2022-08-03T08:10:09.840Z,4.80
2022-08-03T08:12:39.151Z,5.40
2022-08-03T08:15:08.070Z,5.60
2022-08-03T08:17:53.870Z,7.70
2022-08-03T08:20:28.471Z,3.70
2022-08-03T08:23:25.480Z,4.50
2022-08-03T08:25:56.914Z,5.80
2022-08-03T08:28:30.842Z,7.00
2022-08-03T08:31:01.057Z,4.40
2022-08-03T08:33:42.109Z,3.70
2022-08-03T08:36:16.709Z,6.00
2022-08-03T08:38:45.238Z,5.80
2022-08-03T08:41:14.598Z,4.60
2022-08-03T08:43:42.917Z,8.60
2022-08-03T08:46:23.239Z,6.00
2022-08-03T08:48:53.871Z,11.90
2022-08-03T08:51:52.749Z,8.20
2022-08-03T08:54:18.123Z,6.90
2022-08-03T08:56:46.952Z,8.60
2022-08-03T08:59:15.074Z,10.60
2022-08-03T09:01:43.001Z,7.40
2022-08-03T09:04:12.262Z,7.60
2022-08-03T09:06:39.873Z,8.20
2022-08-03T09:09:08.258Z,8.10
2022-08-03T09:12:00.800Z,14.20
2022-08-03T09:14:36.974Z,11.70
2022-08-03T09:17:10.085Z,5.80
2022-08-03T09:20:06.294Z,7.80
2022-08-03T09:22:33.922Z,11.70
2022-08-03T09:25:23.942Z,14.80
2022-08-03T09:27:53.418Z,6.00
2022-08-03T09:30:34.352Z,12.60
2022-08-03T09:33:05.397Z,11.60
2022-08-03T09:38:25.856Z,22.00
2022-08-03T09:40:59.554Z,10.00
2022-08-03T09:43:28.619Z,23.30
2022-08-03T09:46:04.783Z,14.10
2022-08-03T09:48:34.796Z,11.50
2022-08-03T09:51:12.878Z,5.20
2022-08-03T09:53:59.121Z,10.80
2022-08-03T09:56:44.812Z,9.70
2022-08-03T09:59:23.693Z,12.30
2022-08-03T10:01:51.536Z,12.90
2022-08-03T10:04:19.410Z,14.70
2022-08-03T10:07:06.228Z,5.90
2022-08-03T10:09:34.001Z,7.30
2022-08-03T10:12:17.810Z,5.90
2022-08-03T10:14:46.633Z,4.80
2022-08-03T10:17:14.280Z,12.60
2022-08-03T10:19:42.022Z,16.00
2022-08-03T10:22:16.189Z,6.90
2022-08-03T10:25:02.746Z,12.60
2022-08-03T10:27:35.188Z,7.70
2022-08-03T10:30:06.715Z,4.10
2022-08-03T10:32:40.395Z,4.40
2022-08-03T10:35:20.112Z,7.70
2022-08-03T10:38:08.603Z,6.10
2022-08-03T10:40:55.883Z,9.50
2022-08-03T10:43:40.769Z,5.00
2022-08-03T10:46:08.622Z,4.60
2022-08-03T10:48:37.098Z,9.90
2022-08-03T10:51:06.752Z,16.70
2022-08-03T10:53:40.354Z,6.70
2022-08-03T10:56:50.518Z,10.80
2022-08-03T10:59:27.653Z,11.90
2022-08-03T11:02:00.153Z,21.80
2022-08-03T11:04:30.380Z,9.90
2022-08-03T11:07:17.618Z,15.30
2022-08-03T11:09:48.648Z,8.80
2022-08-03T11:12:30.077Z,3.90
2022-08-03T11:15:05.586Z,3.70
2022-08-03T11:17:46.505Z,6.60
2022-08-03T11:20:45.465Z,7.60
2022-08-03T11:23:15.009Z,14.90
2022-08-03T11:26:14.638Z,3.60
2022-08-03T11:28:44.508Z,6.50
2022-08-03T11:31:49.390Z,12.90
2022-08-03T11:34:17.645Z,7.70
2022-08-03T11:37:16.500Z,9.00
2022-08-03T11:39:47.324Z,8.60
2022-08-03T11:42:33.717Z,11.20
2022-08-03T11:45:01.405Z,6.60
2022-08-03T11:47:29.988Z,3.00
2022-08-03T11:50:01.760Z,8.60
2022-08-03T11:52:37.794Z,7.20
2022-08-03T11:55:10.209Z,11.70
2022-08-03T11:58:58.057Z,12.60
2022-08-03T12:00:28.873Z,5.20
2022-08-03T12:02:58.047Z,4.00
2022-08-03T12:05:52.159Z,8.10
2022-08-03T12:08:36.173Z,7.60
2022-08-03T12:11:06.781Z,4.10
2022-08-03T12:14:44.751Z,5.50
2022-08-03T12:16:32.931Z,4.60
2022-08-03T12:19:03.300Z,3.50
2022-08-03T12:21:31.058Z,10.80
2022-08-03T12:24:04.523Z,7.30
2022-08-03T12:26:45.237Z,5.50
2022-08-03T12:29:27.654Z,4.90
2022-08-03T12:31:56.125Z,7.30
2022-08-03T12:34:23.932Z,4.00
2022-08-03T12:36:55.970Z,3.50
2022-08-03T12:39:25.482Z,5.00
2022-08-03T12:41:54.585Z,1.90
2022-08-03T12:44:39.318Z,4.00
2022-08-03T12:47:07.139Z,3.50
2022-08-03T12:49:51.879Z,6.10
2022-08-03T12:52:22.017Z,3.10
2022-08-03T12:55:00.713Z,3.50
2022-08-03T12:57:44.296Z,5.40
2022-08-03T13:00:21.544Z,4.20
2022-08-03T13:03:26.528Z,4.50
2022-08-03T13:05:49.247Z,3.10
2022-08-03T13:08:21.086Z,4.60
2022-08-03T13:10:48.796Z,3.80
2022-08-03T13:13:16.880Z,2.60
2022-08-03T13:15:48.051Z,3.10
2022-08-03T13:18:17.285Z,3.10
2022-08-03T13:20:45.491Z,3.00
2022-08-03T13:23:22.097Z,4.00
2022-08-03T13:25:55.772Z,3.40
2022-08-03T13:28:23.869Z,15.20
2022-08-03T13:30:51.626Z,5.00
2022-08-03T13:33:19.244Z,3.40
2022-08-03T13:35:46.946Z,3.00
2022-08-03T13:38:15.239Z,3.70
2022-08-03T13:40:46.137Z,4.90
2022-08-03T13:43:17.763Z,1.80
2022-08-03T13:45:51.244Z,5.00
2022-08-03T13:48:36.664Z,6.40
2022-08-03T13:51:21.864Z,4.70
2022-08-03T13:53:52.147Z,2.80
2022-08-03T13:56:19.814Z,6.60
2022-08-03T13:58:47.464Z,2.70
2022-08-03T14:01:15.456Z,3.10
2022-08-03T14:03:43.154Z,2.60
2022-08-03T14:06:10.763Z,3.00
2022-08-03T14:08:38.416Z,2.20
2022-08-03T14:11:06.578Z,1.40
2022-08-03T14:13:34.163Z,2.00
2022-08-03T14:16:01.845Z,4.10
2022-08-03T14:18:33.487Z,3.40
2022-08-03T14:21:07.503Z,2.60
2022-08-03T14:23:37.860Z,1.80
2022-08-03T14:26:09.404Z,2.20
2022-08-03T14:28:37.629Z,2.10
2022-08-03T14:31:08.220Z,4.90
2022-08-03T14:33:43.315Z,4.10
2022-08-03T14:36:10.983Z,4.90
2022-08-03T14:38:38.543Z,4.70
2022-08-03T14:41:06.203Z,6.60
2022-08-03T14:43:39.933Z,4.70
2022-08-03T14:46:27.569Z,4.20
2022-08-03T14:50:32.846Z,3.00
2022-08-03T14:51:51.336Z,4.50
2022-08-03T14:54:22.278Z,3.70
2022-08-03T14:56:49.976Z,2.70
2022-08-03T14:59:17.643Z,5.80
2022-08-03T15:02:03.168Z,6.00
2022-08-03T15:04:32.874Z,5.10
2022-08-03T15:07:00.437Z,3.00
2022-08-03T15:09:28.045Z,2.00
2022-08-03T15:11:55.665Z,3.30
2022-08-03T15:14:32.260Z,1.50
2022-08-03T15:17:01.454Z,2.90
2022-08-03T15:20:03.627Z,3.10
2022-08-03T15:22:19.023Z,3.40
2022-08-03T15:24:48.554Z,3.00
2022-08-03T15:27:16.182Z,5.20
2022-08-03T15:30:09.386Z,2.70
2022-08-03T15:32:31.459Z,1.50
2022-08-03T15:35:00.428Z,2.10
2022-08-03T15:37:28.439Z,4.40
2022-08-03T15:40:00.090Z,1.30
2022-08-03T15:42:30.195Z,3.90
2022-08-03T15:44:58.442Z,1.80
2022-08-03T15:47:26.806Z,2.00
2022-08-03T15:49:54.595Z,3.60
2022-08-03T15:52:22.295Z,4.60
2022-08-03T15:54:50.328Z,2.00
2022-08-03T15:57:18.098Z,1.30
2022-08-03T15:59:45.854Z,4.40
2022-08-03T16:02:13.716Z,3.10
2022-08-03T16:04:41.312Z,4.10
2022-08-03T16:07:12.812Z,3.70
2022-08-03T16:09:42.875Z,4.60
2022-08-03T16:12:15.563Z,4.10
2022-08-03T16:14:52.756Z,8.30
2022-08-03T16:17:22.636Z,6.30
2022-08-03T16:19:52.159Z,4.60
2022-08-03T16:22:26.299Z,2.40
2022-08-03T16:24:54.553Z,2.40
2022-08-03T16:27:36.945Z,2.00
2022-08-03T16:30:07.301Z,5.00
2022-08-03T16:32:35.445Z,4.80
2022-08-03T16:35:04.655Z,3.00
2022-08-03T16:37:39.669Z,1.50
2022-08-03T16:40:17.650Z,4.80
2022-08-03T16:42:47.639Z,3.40
2022-08-03T16:45:15.310Z,1.70
2022-08-03T16:47:42.916Z,4.10
2022-08-03T16:50:17.177Z,2.50
2022-08-03T16:52:48.504Z,2.80
2022-08-03T16:55:43.515Z,3.90
2022-08-03T16:58:06.076Z,3.70
2022-08-03T17:00:41.524Z,2.50
2022-08-03T17:03:18.845Z,5.90
2022-08-03T17:05:50.020Z,8.80
2022-08-03T17:08:18.954Z,5.10
2022-08-03T17:10:55.708Z,3.00
2022-08-03T17:13:39.034Z,7.00
2022-08-03T17:16:10.409Z,5.80
2022-08-03T17:18:47.385Z,4.10
2022-08-03T17:21:17.357Z,6.20
2022-08-03T17:23:55.138Z,6.60
2022-08-03T17:26:23.774Z,7.70
2022-08-03T17:29:11.288Z,6.50
2022-08-03T17:31:48.842Z,6.10
2022-08-03T17:34:19.334Z,9.80
2022-08-03T17:37:03.836Z,9.10
2022-08-03T17:39:57.046Z,9.10
2022-08-03T17:42:30.268Z,11.10
2022-08-03T17:45:02.568Z,8.70
2022-08-03T17:47:57.475Z,6.10
2022-08-03T17:50:46.487Z,5.50
2022-08-03T17:53:24.306Z,5.10
2022-08-03T17:56:03.320Z,9.80
2022-08-03T17:58:52.765Z,7.50
2022-08-03T18:02:00.651Z,6.60
2022-08-03T18:04:41.280Z,7.60
2022-08-03T18:07:12.472Z,9.70
2022-08-03T18:10:04.772Z,10.30
2022-08-03T18:12:59.485Z,7.60
2022-08-03T18:15:32.452Z,7.60
2022-08-03T18:18:10.278Z,7.90
2022-08-03T18:20:42.106Z,7.20
2022-08-03T18:23:25.444Z,8.70
2022-08-03T18:26:04.854Z,8.50
2022-08-03T18:28:34.368Z,32.60
2022-08-03T18:31:05.908Z,27.80
2022-08-03T18:34:19.531Z,23.40
2022-08-03T18:36:30.620Z,15.00
2022-08-03T18:41:48.066Z,7.50
2022-08-03T18:44:52.659Z,10.30
2022-08-03T18:50:33.980Z,21.30
2022-08-03T18:53:19.638Z,20.60
2022-08-03T18:56:03.220Z,17.90
2022-08-03T18:58:48.639Z,19.00
2022-08-03T19:01:59.087Z,15.20
2022-08-03T19:04:46.222Z,12.40
2022-08-03T19:07:22.200Z,14.50
2022-08-03T19:10:09.651Z,14.30
2022-08-03T19:12:45.779Z,10.50
2022-08-03T19:15:15.604Z,16.00
2022-08-03T19:17:50.212Z,17.80
2022-08-03T19:20:37.755Z,18.20
2022-08-03T19:23:06.768Z,14.60
2022-08-03T19:25:39.271Z,29.80
2022-08-03T19:28:09.100Z,30.00
2022-08-03T19:33:31.193Z,15.40
2022-08-03T19:36:26.406Z,14.40
2022-08-03T19:38:59.162Z,16.70
2022-08-03T19:41:42.253Z,18.60
2022-08-03T19:44:23.765Z,16.70
2022-08-03T19:47:01.208Z,13.70
2022-08-03T19:50:05.303Z,20.00
2022-08-03T19:52:31.414Z,24.30
2022-08-03T19:55:03.884Z,21.50
2022-08-03T19:57:33.361Z,13.20
2022-08-03T20:00:03.396Z,15.00
2022-08-03T20:02:33.307Z,14.50
2022-08-03T20:05:01.288Z,12.90
2022-08-03T20:07:32.719Z,18.10
2022-08-03T20:10:04.188Z,13.40
2022-08-03T20:12:39.142Z,14.40
2022-08-03T20:15:09.066Z,18.50
2022-08-03T20:17:54.515Z,16.20
2022-08-03T20:20:30.034Z,12.00
2022-08-03T20:23:00.486Z,14.60
2022-08-03T20:25:38.264Z,10.00
2022-08-03T20:28:15.111Z,9.30
2022-08-03T20:30:47.356Z,8.80
2022-08-03T20:33:18.630Z,9.50
2022-08-03T20:35:49.620Z,11.70
2022-08-03T20:38:18.928Z,13.30
2022-08-03T20:40:48.371Z,10.10
2022-08-03T20:43:16.949Z,9.80
2022-08-03T20:46:00.390Z,9.80
2022-08-03T20:48:37.243Z,6.80
2022-08-03T20:51:15.719Z,8.80
2022-08-03T20:54:00.395Z,12.70
2022-08-03T20:56:33.582Z,8.70
2022-08-03T20:59:06.999Z,6.10
2022-08-03T21:01:44.343Z,7.10
2022-08-03T21:04:13.581Z,8.20
2022-08-03T21:06:53.142Z,9.40
2022-08-03T21:09:39.852Z,7.40
2022-08-03T21:12:15.489Z,7.60
2022-08-03T21:12:58.867Z,18.30
2022-08-03T21:13:00.464Z,14.50
2022-08-03T21:13:09.879Z,14.80
2022-08-03T21:15:04.415Z,8.30
2022-08-03T21:17:42.062Z,8.30
2022-08-03T21:20:12.058Z,7.80
2022-08-03T21:22:45.142Z,8.20
2022-08-03T21:25:16.012Z,9.30
2022-08-03T21:27:43.827Z,9.30
2022-08-03T21:30:12.278Z,8.00
2022-08-03T21:32:42.971Z,7.40
2022-08-03T21:35:12.355Z,9.00
2022-08-03T21:37:41.659Z,7.50
2022-08-03T21:40:12.325Z,9.00
2022-08-03T21:42:41.360Z,6.80
2022-08-03T21:45:16.924Z,7.60
2022-08-03T21:47:46.851Z,9.10
2022-08-03T21:50:15.542Z,8.30
2022-08-03T21:52:48.876Z,8.90
2022-08-03T21:55:20.527Z,7.10
2022-08-03T21:57:53.024Z,8.30
2022-08-03T22:00:23.279Z,7.50
2022-08-03T22:02:56.045Z,8.30
2022-08-03T22:05:29.031Z,7.30
2022-08-03T22:08:15.370Z,7.70
2022-08-03T22:10:43.746Z,8.50
2022-08-03T22:13:13.896Z,7.00
2022-08-03T22:15:42.085Z,8.80
2022-08-03T22:18:12.722Z,9.60
2022-08-03T22:20:40.870Z,9.40
2022-08-03T22:23:09.745Z,7.20
2022-08-03T22:25:39.666Z,7.10
2022-08-03T22:28:10.541Z,7.50
2022-08-03T22:30:39.649Z,9.00
2022-08-03T22:33:11.643Z,7.50
2022-08-03T22:35:47.458Z,7.70
2022-08-03T22:38:18.003Z,9.50
2022-08-03T22:40:48.997Z,8.40
2022-08-03T22:43:17.340Z,8.00
2022-08-03T22:46:10.477Z,7.80
2022-08-03T22:48:40.919Z,8.90
2022-08-03T22:51:10.095Z,9.30
2022-08-03T22:53:38.976Z,8.50
2022-08-03T22:56:07.645Z,7.50
2022-08-03T22:58:35.215Z,8.10
2022-08-03T23:01:11.476Z,9.00
2022-08-03T23:04:01.248Z,7.70
2022-08-03T23:06:34.855Z,9.10
2022-08-03T23:09:08.565Z,7.30
2022-08-03T23:11:45.239Z,7.40
2022-08-03T23:14:18.372Z,7.50
2022-08-03T23:16:47.683Z,9.40
2022-08-03T23:19:25.028Z,8.40
2022-08-03T23:22:02.469Z,7.90
2022-08-03T23:24:36.363Z,8.20
2022-08-03T23:27:06.930Z,9.90
2022-08-03T23:29:36.759Z,7.90
2022-08-03T23:32:05.791Z,9.10
2022-08-03T23:34:49.413Z,8.20
2022-08-03T23:37:20.169Z,9.30
2022-08-03T23:39:48.883Z,10.50
2022-08-03T23:42:18.661Z,10.00
2022-08-03T23:44:46.913Z,10.30
2022-08-03T23:47:14.635Z,9.60
2022-08-03T23:49:42.446Z,8.70
2022-08-03T23:52:25.312Z,8.60
2022-08-03T23:55:09.026Z,9.80
2022-08-03T23:57:45.612Z,8.20
